Time;durP1;ratioP1;P1;durP2;ratioP2;P2;SDS_P1;SDS_P2;PMS_P1;PMS_P2;Temp;Humidity;BMP_temperature;BMP_pressure;BME280_temperature;BME280_humidity;BME280_pressure;Samples;Min_cycle;Max_cycle;Signal;HPM_P1;HPM_P2
2023/02/20 00:01:37;;;;;;;18.23;9.02;;;;;;;4.13;100.00;102587.47;5074523;28;20429;-77
2023/02/20 00:04:03;;;;;;;19.70;9.02;;;;;;;4.10;100.00;102589.38;5074429;28;20033;-76
2023/02/20 00:06:28;;;;;;;21.02;9.20;;;;;;;4.06;100.00;102584.22;5074135;28;20035;-77
2023/02/20 00:08:54;;;;;;;25.45;9.57;;;;;;;4.00;100.00;102576.53;5074515;28;20114;-77
2023/02/20 00:11:19;;;;;;;25.20;9.90;;;;;;;3.99;100.00;102579.22;5073929;28;20064;-78
2023/02/20 00:13:46;;;;;;;29.50;9.50;;;;;;;3.97;100.00;102581.91;5073001;28;20029;-77
2023/02/20 00:16:12;;;;;;;17.63;8.73;;;;;;;3.88;100.00;102567.28;5074453;28;20056;-77
2023/02/20 00:18:37;;;;;;;23.27;8.95;;;;;;;3.85;100.00;102571.78;5073823;28;20127;-77
2023/02/20 00:21:05;;;;;;;24.83;8.88;;;;;;;3.84;100.00;102563.03;5074290;28;20046;-77
2023/02/20 00:23:33;;;;;;;23.60;9.52;;;;;;;3.81;100.00;102564.91;5073669;28;20103;-77
2023/02/20 00:25:59;;;;;;;26.38;10.18;;;;;;;3.80;100.00;102563.19;5074018;28;20469;-77
2023/02/20 00:28:24;;;;;;;22.88;9.23;;;;;;;3.74;100.00;102558.13;5055704;28;20120;-77
2023/02/20 00:30:50;;;;;;;28.20;9.32;;;;;;;3.73;100.00;102565.16;5074072;28;20060;-77
2023/02/20 00:33:15;;;;;;;25.33;10.35;;;;;;;3.80;100.00;102560.56;5073473;28;20064;-76
2023/02/20 00:35:40;;;;;;;28.60;9.63;;;;;;;3.82;100.00;102559.59;5073501;28;20129;-76
2023/02/20 00:38:06;;;;;;;30.63;9.70;;;;;;;3.82;100.00;102556.09;5073588;28;20040;-77
2023/02/20 00:40:31;;;;;;;29.38;9.50;;;;;;;3.85;100.00;102550.72;5055398;28;20037;-77
2023/02/20 00:42:57;;;;;;;34.15;9.95;;;;;;;3.94;100.00;102568.84;5073616;28;20115;-76
2023/02/20 00:45:22;;;;;;;36.63;9.85;;;;;;;4.00;100.00;102558.09;5073244;28;20071;-78
2023/02/20 00:47:47;;;;;;;27.75;9.95;;;;;;;3.99;100.00;102547.63;5073709;28;20078;-77
2023/02/20 00:50:14;;;;;;;26.17;9.25;;;;;;;3.98;100.00;102537.97;5055700;28;20033;-77
2023/02/20 00:52:40;;;;;;;31.27;8.82;;;;;;;3.97;100.00;102534.50;5073117;28;20033;-76
2023/02/20 00:55:06;;;;;;;29.67;9.30;;;;;;;3.98;100.00;102530.94;5073190;28;20032;-77
2023/02/20 00:57:31;;;;;;;32.45;9.20;;;;;;;3.97;100.00;102534.50;5073106;28;20039;-77
2023/02/20 00:59:57;;;;;;;29.67;8.75;;;;;;;4.02;100.00;102523.78;5073456;28;20032;-76
2023/02/20 01:02:22;;;;;;;33.30;8.30;;;;;;;4.10;100.00;102527.00;5073338;28;20119;-76
2023/02/20 01:04:48;;;;;;;36.28;9.35;;;;;;;4.22;100.00;102531.84;5072832;28;20040;-76
2023/02/20 01:07:14;;;;;;;26.85;8.18;;;;;;;4.24;100.00;102529.16;5073519;28;20090;-77
2023/02/20 01:09:39;;;;;;;32.17;8.60;;;;;;;4.24;100.00;102524.72;5072856;28;20024;-77
2023/02/20 01:12:05;;;;;;;34.15;8.35;;;;;;;4.33;100.00;102520.88;5073235;28;20036;-77
2023/02/20 01:14:30;;;;;;;38.40;8.73;;;;;;;4.39;100.00;102511.91;5072706;28;20024;-76
2023/02/20 01:16:55;;;;;;;33.38;8.55;;;;;;;4.39;100.00;102496.09;5073325;28;20033;-76
2023/02/20 01:19:22;;;;;;;37.60;9.40;;;;;;;4.36;100.00;102501.44;5072777;28;20039;-77
2023/02/20 01:21:47;;;;;;;39.58;8.77;;;;;;;4.35;100.00;102497.97;5072602;28;20029;-75
2023/02/20 01:24:14;;;;;;;37.75;7.47;;;;;;;4.35;100.00;102499.75;5055101;28;20035;-76
2023/02/20 01:26:41;;;;;;;31.75;7.65;;;;;;;4.38;100.00;102492.56;5072304;28;20115;-76
2023/02/20 01:29:06;;;;;;;28.05;6.82;;;;;;;4.36;100.00;102493.53;5073262;28;20036;-76
2023/02/20 01:31:32;;;;;;;32.42;8.00;;;;;;;4.37;100.00;102490.00;5072156;28;20037;-76
2023/02/20 01:33:57;;;;;;;34.08;7.60;;;;;;;4.41;100.00;102494.25;5072164;28;20052;-76
2023/02/20 01:36:23;;;;;;;41.20;8.82;;;;;;;4.47;100.00;102493.16;5054878;28;20481;-76
2023/02/20 01:38:49;;;;;;;37.55;8.32;;;;;;;4.55;100.00;102489.31;5072252;28;20044;-76
2023/02/20 01:41:15;;;;;;;36.33;9.30;;;;;;;4.67;100.00;102484.47;5072575;28;20043;-76
2023/02/20 01:43:41;;;;;;;32.67;8.98;;;;;;;4.76;100.00;102476.16;5072138;28;20033;-76
2023/02/20 01:46:43;;;;;;;36.78;9.00;;;;;;;4.79;100.00;102470.78;5072174;28;20480;-76
2023/02/20 01:49:12;;;;;;;40.47;9.35;;;;;;;4.83;100.00;102464.47;4971334;28;20046;-76
2023/02/20 01:51:42;;;;;;;34.15;9.25;;;;;;;4.87;100.00;102457.31;5054393;28;20051;-76
2023/02/20 01:54:11;;;;;;;33.67;9.18;;;;;;;4.92;100.00;102442.97;5072160;28;20028;-76
2023/02/20 01:56:37;;;;;;;47.88;9.98;;;;;;;4.98;100.00;102448.94;5072088;28;20040;-76
2023/02/20 01:59:05;;;;;;;36.63;10.23;;;;;;;5.00;100.00;102440.06;5072421;28;20035;-76
2023/02/20 02:01:32;;;;;;;42.20;9.25;;;;;;;4.98;100.00;102451.56;5072445;28;20032;-76
2023/02/20 02:04:03;;;;;;;36.33;9.98;;;;;;;5.00;100.00;102447.09;5054592;28;20120;-76
2023/02/20 02:06:30;;;;;;;40.88;10.48;;;;;;;5.05;100.00;102447.78;5072200;28;20039;-76
2023/02/20 02:09:01;;;;;;;44.15;10.73;;;;;;;5.09;100.00;102437.03;5071881;28;20040;-75
2023/02/20 02:11:27;;;;;;;30.38;9.95;;;;;;;5.14;100.00;102438.63;5054508;28;20035;-76
2023/02/20 02:13:53;;;;;;;47.20;11.02;;;;;;;5.15;100.00;102430.63;5071895;28;20040;-76
2023/02/20 02:16:24;;;;;;;38.97;10.35;;;;;;;5.17;100.00;102435.84;5072217;28;20039;-76
2023/02/20 02:18:58;;;;;;;44.60;10.40;;;;;;;5.24;100.00;102419.69;5071845;28;20036;-75
2023/02/20 02:21:47;;;;;;;38.63;9.20;;;;;;;5.24;100.00;102427.59;5071987;28;20059;-75
2023/02/20 02:24:27;;;;;;;30.83;9.27;;;;;;;5.23;100.00;102423.22;5071878;28;20028;-76
2023/02/20 02:27:15;;;;;;;52.58;10.63;;;;;;;5.29;100.00;102419.47;5071810;28;20029;-76
2023/02/20 02:30:02;;;;;;;34.90;9.15;;;;;;;5.29;100.00;102420.31;5071553;28;20386;-77
2023/02/20 02:32:50;;;;;;;34.45;8.95;;;;;;;5.28;100.00;102413.34;5072238;28;20029;-75
2023/02/20 02:35:16;;;;;;;29.08;9.13;;;;;;;5.30;100.00;102423.84;5072204;28;20052;-76
2023/02/20 02:38:12;;;;;;;34.28;9.13;;;;;;;5.26;100.00;102412.53;5073304;28;20036;-76
2023/02/20 02:40:53;;;;;;;28.13;7.55;;;;;;;5.23;100.00;102404.75;5075848;28;20477;-77
2023/02/20 02:43:24;;;;;;;38.03;8.43;;;;;;;5.27;100.00;102416.91;5076204;28;20059;-76
2023/02/20 02:45:52;;;;;;;30.67;7.93;;;;;;;5.34;100.00;102419.28;5075164;28;20521;-76
2023/02/20 02:48:39;;;;;;;31.67;7.90;;;;;;;5.35;100.00;102421.84;5075673;28;20422;-77
2023/02/20 02:51:20;;;;;;;34.47;7.55;;;;;;;5.41;100.00;102415.44;5076256;28;20071;-77
2023/02/20 02:54:05;;;;;;;30.02;8.20;;;;;;;5.47;100.00;102418.66;5057719;28;20036;-77
2023/02/20 02:56:43;;;;;;;32.40;7.88;;;;;;;5.51;100.00;102418.53;5076314;28;20035;-76
2023/02/20 02:59:13;;;;;;;33.92;8.40;;;;;;;5.49;100.00;102413.31;5075895;28;20094;-76
2023/02/20 03:01:44;;;;;;;28.90;7.47;;;;;;;5.47;100.00;102409.91;5057615;28;20064;-80
2023/02/20 03:04:11;;;;;;;35.42;7.88;;;;;;;5.49;100.00;102408.03;5075780;28;20024;-76
2023/02/20 03:06:41;;;;;;;33.67;8.23;;;;;;;5.55;100.00;102409.56;5075426;28;20425;-75
2023/02/20 03:09:20;;;;;;;36.13;8.02;;;;;;;5.59;100.00;102413.78;5075701;28;20469;-76
2023/02/20 03:11:45;;;;;;;38.83;7.47;;;;;;;5.61;100.00;102399.59;5074888;28;20347;-76
2023/02/20 03:17:51;;;;;;;39.17;8.88;;;;;;;5.58;100.00;102409.41;5075107;28;20035;-76
2023/02/20 03:20:19;;;;;;;35.35;7.78;;;;;;;5.57;100.00;102405.06;5075203;28;20032;-76
2023/02/20 03:22:55;;;;;;;39.95;7.18;;;;;;;5.55;100.00;102415.69;5074946;28;20093;-76
2023/02/20 03:25:25;;;;;;;33.97;6.85;;;;;;;5.58;100.00;102412.94;5075166;28;20040;-76
2023/02/20 03:27:56;;;;;;;36.83;6.97;;;;;;;5.62;100.00;102408.38;5074814;28;20478;-76
2023/02/20 03:30:28;;;;;;;35.75;8.15;;;;;;;5.63;100.00;102407.44;5075151;28;20025;-76
2023/02/20 03:44:09;;;;;;;33.40;8.65;;;;;;;5.83;100.00;102386.25;5074156;28;20040;-76
2023/02/20 03:46:37;;;;;;;35.38;8.32;;;;;;;5.83;100.00;102386.25;5074504;28;20077;-76
2023/02/20 03:49:17;;;;;;;33.60;8.70;;;;;;;5.88;100.00;102386.06;5073857;28;20071;-76
2023/02/20 03:51:43;;;;;;;28.98;8.07;;;;;;;5.94;100.00;102382.25;5056624;28;20052;-76
2023/02/20 03:54:10;;;;;;;41.28;9.02;;;;;;;5.99;100.00;102380.31;5039550;28;20091;-76
2023/02/20 03:56:43;;;;;;;26.65;8.20;;;;;;;6.03;100.00;102375.72;5074539;28;20544;-77
2023/02/20 03:59:16;;;;;;;30.27;8.73;;;;;;;6.04;100.00;102385.38;5056287;28;20448;-77
2023/02/20 04:01:45;;;;;;;42.25;8.60;;;;;;;6.04;100.00;102378.28;5074625;28;20086;-77
2023/02/20 04:04:20;;;;;;;27.08;7.95;;;;;;;6.03;100.00;102378.38;5074406;28;20024;-76
2023/02/20 04:06:47;;;;;;;31.30;8.00;;;;;;;6.06;100.00;102378.22;5074779;28;20038;-76
2023/02/20 04:09:21;;;;;;;38.90;8.48;;;;;;;6.06;100.00;102365.88;5074534;28;20067;-76
2023/02/20 04:11:53;;;;;;;35.25;8.05;;;;;;;6.06;100.00;102365.00;5074484;28;20040;-79
2023/02/20 04:14:21;;;;;;;32.97;8.02;;;;;;;6.03;100.00;102363.38;5074383;28;20389;-77
2023/02/20 04:16:51;;;;;;;29.38;7.57;;;;;;;6.02;100.00;102374.88;5074288;28;20037;-76
2023/02/20 04:19:17;;;;;;;27.75;7.65;;;;;;;6.00;100.00;102374.94;5074783;28;20035;-77
2023/02/20 04:21:53;;;;;;;35.88;8.40;;;;;;;6.00;100.00;102376.72;5078401;28;20036;-78
2023/02/20 04:24:30;;;;;;;29.75;8.13;;;;;;;6.03;100.00;102367.78;5077154;28;20040;-77
2023/02/20 04:26:56;;;;;;;34.13;8.52;;;;;;;6.05;100.00;102366.81;5074828;28;20040;-77
2023/02/20 04:29:21;;;;;;;35.17;8.27;;;;;;;6.05;100.00;102371.25;5074971;28;20146;-77
2023/02/20 04:31:47;;;;;;;33.00;8.13;;;;;;;6.04;100.00;102372.16;5074082;28;20120;-77
2023/02/20 04:34:12;;;;;;;23.17;7.70;;;;;;;6.02;100.00;102366.94;5052049;28;20052;-78
2023/02/20 04:36:38;;;;;;;25.90;7.75;;;;;;;5.99;100.00;102367.94;5052584;28;20087;-77
2023/02/20 04:39:03;;;;;;;26.48;8.02;;;;;;;5.97;100.00;102375.09;5053570;28;20025;-77
2023/02/20 04:41:29;;;;;;;32.00;8.77;;;;;;;5.96;100.00;102377.78;5053671;28;20033;-77
2023/02/20 04:44:29;;;;;;;26.75;7.75;;;;;;;5.93;100.00;102373.47;5053130;28;20473;-77
2023/02/20 04:46:39;;;;;;;27.60;7.97;;;;;;;5.87;100.00;102386.09;5053414;28;20452;-77
2023/02/20 04:49:05;;;;;;;33.15;8.98;;;;;;;5.82;100.00;102371.34;5053401;28;20060;-77
2023/02/20 04:51:30;;;;;;;33.03;10.05;;;;;;;5.82;100.00;102371.34;5053601;28;20457;-77
2023/02/20 04:53:56;;;;;;;31.77;9.45;;;;;;;5.79;100.00;102391.75;5053266;28;20429;-77
2023/02/20 04:56:21;;;;;;;34.75;9.75;;;;;;;5.81;100.00;102374.06;5053684;28;20451;-76
2023/02/20 04:58:48;;;;;;;21.65;8.90;;;;;;;5.82;100.00;102383.69;5053679;28;20174;-77
2023/02/20 05:01:14;;;;;;;27.42;9.32;;;;;;;5.81;100.00;102390.75;5052448;28;20058;-77
2023/02/20 05:03:39;;;;;;;26.38;10.68;;;;;;;5.81;100.00;102382.84;5053193;28;20123;-76
2023/02/20 05:06:04;;;;;;;29.77;9.43;;;;;;;5.73;100.00;102382.34;5052668;28;20458;-77
2023/02/20 05:08:30;;;;;;;34.75;9.73;;;;;;;5.70;100.00;102381.59;5053352;28;20400;-77
2023/02/20 05:10:56;;;;;;;31.42;10.02;;;;;;;5.69;100.00;102388.69;5053055;28;20495;-77
2023/02/20 05:13:21;;;;;;;33.42;10.07;;;;;;;5.63;100.00;102384.53;5052329;28;20488;-77
2023/02/20 05:15:46;;;;;;;30.40;9.55;;;;;;;5.60;100.00;102387.31;5053055;28;20488;-77
2023/02/20 05:18:12;;;;;;;34.40;9.80;;;;;;;5.62;100.00;102371.41;5053071;28;20086;-77
2023/02/20 05:23:21;;;;;;;28.88;9.88;;;;;;;5.63;100.00;102399.53;5053121;28;20090;-77
2023/02/20 05:25:47;;;;;;;37.78;9.55;;;;;;;5.59;100.00;102388.22;5052971;28;20037;-77
2023/02/20 05:28:12;;;;;;;28.00;9.07;;;;;;;5.59;100.00;102385.59;5052674;28;20436;-77
2023/02/20 05:30:37;;;;;;;23.65;8.95;;;;;;;5.60;100.00;102384.66;5053202;28;20037;-77
2023/02/20 05:33:03;;;;;;;23.80;9.23;;;;;;;5.58;100.00;102398.84;5052219;28;20116;-78
2023/02/20 05:35:28;;;;;;;21.75;9.10;;;;;;;5.55;100.00;102388.44;5071288;28;20087;-77
2023/02/20 05:37:53;;;;;;;31.08;10.55;;;;;;;5.53;100.00;102391.16;5072514;28;20044;-77
2023/02/20 05:40:19;;;;;;;30.13;8.65;;;;;;;5.52;100.00;102386.78;5072419;28;20032;-78
2023/02/20 05:42:44;;;;;;;23.80;8.45;;;;;;;5.54;100.00;102390.22;5072791;28;20029;-77
2023/02/20 05:45:10;;;;;;;20.40;8.20;;;;;;;5.51;100.00;102385.09;5072246;28;20586;-77
2023/02/20 05:47:38;;;;;;;35.33;10.18;;;;;;;5.51;100.00;102386.84;5072892;28;20032;-77
2023/02/20 05:50:04;;;;;;;25.00;8.52;;;;;;;5.53;100.00;102385.88;5072651;28;20056;-78
2023/02/20 05:52:29;;;;;;;24.23;9.00;;;;;;;5.49;100.00;102381.63;5072659;28;20036;-78
2023/02/20 05:54:54;;;;;;;23.73;9.00;;;;;;;5.45;100.00;102380.09;5072958;28;20028;-78
2023/02/20 05:57:20;;;;;;;23.27;8.63;;;;;;;5.41;100.00;102376.69;5072386;28;20036;-78
2023/02/20 05:59:45;;;;;;;25.40;9.88;;;;;;;5.38;100.00;102376.00;5054579;28;20544;-78
2023/02/20 06:02:10;;;;;;;26.30;9.70;;;;;;;5.33;100.00;102378.84;5037799;28;20465;-78
2023/02/20 06:04:36;;;;;;;22.52;9.10;;;;;;;5.35;100.00;102384.91;5072639;28;20032;-78
2023/02/20 06:07:01;;;;;;;27.10;10.40;;;;;;;5.36;100.00;102378.69;5072270;28;20033;-84
2023/02/20 06:09:27;;;;;;;23.23;10.05;;;;;;;5.33;100.00;102378.84;5072631;28;20032;-82
2023/02/20 06:11:55;;;;;;;30.23;11.35;;;;;;;5.35;100.00;102376.13;5072234;28;20051;-77
2023/02/20 06:14:23;;;;;;;24.63;10.48;;;;;;;5.29;100.00;102382.53;5072252;28;20032;-77
2023/02/20 06:16:48;;;;;;;30.95;10.57;;;;;;;5.25;100.00;102384.44;5072671;28;20032;-79
2023/02/20 06:19:21;;;;;;;24.67;9.80;;;;;;;5.27;100.00;102389.66;5071811;28;20029;-77
2023/02/20 06:21:46;;;;;;;26.90;9.77;;;;;;;5.35;100.00;102386.69;5072462;28;20029;-78
2023/02/20 06:24:12;;;;;;;26.48;10.10;;;;;;;5.32;100.00;102381.53;5071783;28;20029;-77
2023/02/20 06:26:41;;;;;;;27.67;10.63;;;;;;;5.35;100.00;102384.91;5073933;28;20121;-78
2023/02/20 06:29:07;;;;;;;25.73;9.90;;;;;;;5.38;100.00;102376.84;5073322;28;20389;-77
2023/02/20 06:31:32;;;;;;;32.47;10.20;;;;;;;5.41;100.00;102383.78;5074554;28;20067;-78
2023/02/20 06:33:57;;;;;;;25.20;10.07;;;;;;;5.40;100.00;102379.41;5072594;28;20081;-78
2023/02/20 06:36:26;;;;;;;24.73;9.18;;;;;;;5.41;100.00;102389.06;5071810;28;20032;-78
2023/02/20 06:38:52;;;;;;;29.20;10.77;;;;;;;5.37;100.00;102382.19;5072240;28;20155;-78
2023/02/20 06:41:17;;;;;;;25.20;10.25;;;;;;;5.39;100.00;102386.47;5071939;28;20036;-77
2023/02/20 06:43:43;;;;;;;27.30;10.35;;;;;;;5.43;100.00;102384.56;5072334;28;20040;-78
2023/02/20 06:46:08;;;;;;;32.88;9.80;;;;;;;5.44;100.00;102389.75;5071802;28;20055;-79
2023/02/20 06:48:34;;;;;;;34.08;10.05;;;;;;;5.50;100.00;102377.22;5072052;28;20464;-77
2023/02/20 06:50:59;;;;;;;30.73;10.57;;;;;;;5.50;100.00;102375.44;5071657;28;20035;-78
2023/02/20 06:53:25;;;;;;;33.38;10.18;;;;;;;5.52;100.00;102386.78;5071516;28;20111;-77
2023/02/20 06:55:50;;;;;;;29.98;10.27;;;;;;;5.47;100.00;102383.50;5053867;28;20047;-77
2023/02/20 06:58:15;;;;;;;31.45;9.70;;;;;;;5.49;100.00;102397.47;5071627;28;20032;-77
2023/02/20 07:00:41;;;;;;;25.58;8.63;;;;;;;5.49;100.00;102386.91;5071807;28;20097;-77
2023/02/20 07:03:06;;;;;;;33.95;9.70;;;;;;;5.52;100.00;102388.56;5071560;28;20037;-78
2023/02/20 07:05:32;;;;;;;28.92;8.85;;;;;;;5.53;100.00;102385.88;5071387;28;20029;-77
2023/02/20 07:07:57;;;;;;;31.40;9.30;;;;;;;5.50;100.00;102383.38;5071813;28;20041;-77
2023/02/20 07:10:22;;;;;;;24.38;8.95;;;;;;;5.55;100.00;102391.91;5053467;28;20040;-78
2023/02/20 07:12:48;;;;;;;26.75;9.50;;;;;;;5.56;100.00;102395.44;5071461;28;20120;-78
2023/02/20 07:15:13;;;;;;;24.55;9.23;;;;;;;5.56;100.00;102390.16;5071346;28;20033;-78
2023/02/20 07:17:39;;;;;;;26.23;10.02;;;;;;;5.62;100.00;102397.81;5072003;28;20032;-78
2023/02/20 07:20:05;;;;;;;24.73;8.93;;;;;;;5.68;100.00;102399.31;5071857;28;20032;-78
2023/02/20 07:22:31;;;;;;;31.20;9.23;;;;;;;5.73;100.00;102405.22;5071295;28;20085;-78
2023/02/20 07:24:56;;;;;;;28.33;8.60;;;;;;;5.77;100.00;102397.09;5074751;28;20184;-77
2023/02/20 07:27:22;;;;;;;34.65;9.18;;;;;;;5.85;100.00;102404.66;5074561;28;20028;-77
2023/02/20 07:29:49;;;;;;;21.30;8.35;;;;;;;5.91;100.00;102396.50;5075269;28;20032;-78
2023/02/20 07:32:19;;;;;;;22.13;8.18;;;;;;;6.03;100.00;102388.94;5074754;28;20031;-78
2023/02/20 07:34:45;;;;;;;24.75;9.45;;;;;;;6.10;100.00;102390.38;5075056;28;20049;-79
2023/02/20 07:37:10;;;;;;;25.98;9.98;;;;;;;6.16;100.00;102400.66;5074980;28;20044;-78
2023/02/20 07:39:36;;;;;;;24.65;10.93;;;;;;;6.16;100.00;102388.28;5056494;28;20037;-79
2023/02/20 07:42:01;;;;;;;26.50;9.45;;;;;;;6.21;100.00;102396.03;5074950;28;20028;-78
2023/02/20 07:44:26;;;;;;;23.48;10.38;;;;;;;6.20;100.00;102402.22;5074529;28;20443;-75
2023/02/20 07:46:52;;;;;;;25.35;10.77;;;;;;;6.21;100.00;102388.09;5074587;28;20051;-77
2023/02/20 07:49:17;;;;;;;35.78;10.43;;;;;;;6.23;100.00;102393.31;5074198;28;20028;-77
2023/02/20 07:51:42;;;;;;;28.48;10.13;;;;;;;6.25;100.00;102394.06;5056257;28;20029;-77
2023/02/20 07:54:08;;;;;;;21.98;9.57;;;;;;;6.27;100.00;102387.78;5057061;28;20032;-77
2023/02/20 07:56:33;;;;;;;30.58;10.38;;;;;;;6.31;100.00;102405.19;5073904;28;20496;-79
2023/02/20 07:58:59;;;;;;;20.83;9.57;;;;;;;6.30;100.00;102395.56;5074666;28;20028;-77
2023/02/20 08:01:24;;;;;;;21.48;9.27;;;;;;;6.34;100.00;102391.88;5073803;28;20556;-78
2023/02/20 08:03:49;;;;;;;28.05;10.63;;;;;;;6.36;100.00;102407.66;5068508;28;20560;-77
2023/02/20 08:06:18;;;;;;;26.17;11.20;;;;;;;6.38;100.00;102395.19;5051908;28;20033;-80
2023/02/20 08:08:50;;;;;;;24.48;11.05;;;;;;;6.41;100.00;102397.69;5051711;28;20057;-80
2023/02/20 08:11:21;;;;;;;24.77;10.55;;;;;;;6.42;100.00;102396.78;5053838;28;20032;-80
2023/02/20 08:13:46;;;;;;;26.20;11.13;;;;;;;6.44;100.00;102415.22;5052158;28;20028;-78
2023/02/20 08:16:12;;;;;;;28.17;11.23;;;;;;;6.49;100.00;102416.72;5051283;28;20325;-78
2023/02/20 08:18:37;;;;;;;31.17;9.55;;;;;;;6.50;100.00;102402.53;5050808;28;20029;-79
2023/02/20 08:21:03;;;;;;;25.33;10.25;;;;;;;6.47;100.00;102394.75;5051542;28;20492;-78
2023/02/20 08:23:28;;;;;;;25.42;9.35;;;;;;;6.49;100.00;102407.91;5051225;28;20098;-79
2023/02/20 08:25:54;;;;;;;18.48;8.98;;;;;;;6.46;100.00;102411.53;5054576;28;20028;-80
2023/02/20 08:28:19;;;;;;;24.27;8.23;;;;;;;6.44;100.00;102405.47;5050737;28;20060;-78
2023/02/20 08:30:45;;;;;;;26.05;8.55;;;;;;;6.42;100.00;102394.13;5052833;28;20048;-78
2023/02/20 08:33:11;;;;;;;21.77;7.50;;;;;;;6.51;100.00;102403.41;5055912;28;20029;-78
2023/02/20 08:35:36;;;;;;;21.38;7.80;;;;;;;6.57;100.00;102389.88;5055115;28;20072;-81
2023/02/20 08:38:06;;;;;;;21.23;7.82;;;;;;;6.61;100.00;102396.72;5054109;28;20489;-78
2023/02/20 08:40:32;;;;;;;14.55;6.68;;;;;;;6.70;100.00;102401.59;5051617;28;20462;-80
2023/02/20 08:42:58;;;;;;;15.63;6.68;;;;;;;6.74;100.00;102388.19;5033336;28;20037;-78
2023/02/20 08:45:23;;;;;;;26.10;7.78;;;;;;;6.79;100.00;102392.34;5050659;28;20064;-78
2023/02/20 08:47:49;;;;;;;16.08;6.30;;;;;;;6.85;100.00;102388.50;5050184;28;20032;-80
2023/02/20 08:50:17;;;;;;;18.40;7.13;;;;;;;6.82;100.00;102378.94;5051578;28;20045;-79
2023/02/20 08:52:43;;;;;;;18.88;7.13;;;;;;;6.86;100.00;102396.34;5050403;28;20098;-79
2023/02/20 08:55:09;;;;;;;23.50;6.47;;;;;;;6.89;100.00;102384.78;5052018;28;20029;-79
2023/02/20 08:57:35;;;;;;;17.55;6.53;;;;;;;6.94;100.00;102373.97;5059553;28;20378;-75
2023/02/20 09:00:00;;;;;;;16.75;5.95;;;;;;;6.97;100.00;102376.44;5067773;28;20032;-80
2023/02/20 09:02:27;;;;;;;15.30;6.00;;;;;;;6.97;100.00;102374.69;5069760;28;20040;-79
2023/02/20 09:04:55;;;;;;;15.05;6.03;;;;;;;7.00;100.00;102373.63;5061599;28;20040;-81
2023/02/20 09:07:20;;;;;;;17.25;6.03;;;;;;;7.12;100.00;102375.69;5052925;28;20029;-82
2023/02/20 09:09:46;;;;;;;13.57;5.25;;;;;;;7.18;100.00;102366.53;5055343;28;20060;-79
2023/02/20 09:12:11;;;;;;;16.23;5.25;;;;;;;7.27;100.00;102374.03;5052889;28;20032;-81
2023/02/20 09:14:37;;;;;;;16.00;5.47;;;;;;;7.26;100.00;102382.06;5052427;28;20040;-81
2023/02/20 09:17:04;;;;;;;15.75;5.53;;;;;;;7.28;100.00;102380.16;5052370;28;20036;-80
2023/02/20 09:19:30;;;;;;;15.25;5.80;;;;;;;7.34;100.00;102387.78;5052245;28;20039;-79
2023/02/20 09:21:55;;;;;;;23.73;6.47;;;;;;;7.28;100.00;102381.00;5052448;28;20083;-76
2023/02/20 09:24:20;;;;;;;13.88;5.55;;;;;;;7.31;100.00;102390.59;5050770;28;20033;-82
2023/02/20 09:26:46;;;;;;;19.35;5.75;;;;;;;7.27;100.00;102402.28;5051897;28;20037;-81
2023/02/20 09:29:11;;;;;;;12.20;5.20;;;;;;;7.19;100.00;102402.69;5052257;28;20035;-81
2023/02/20 09:31:37;;;;;;;16.70;5.43;;;;;;;7.19;100.00;102410.63;5052211;28;20025;-81
2023/02/20 09:34:03;;;;;;;16.85;5.28;;;;;;;7.18;100.00;102416.84;5052056;28;20035;-77
2023/02/20 09:36:28;;;;;;;16.25;5.15;;;;;;;7.18;100.00;102401.84;5052448;28;20124;-80
2023/02/20 09:38:54;;;;;;;15.13;4.78;;;;;;;7.12;100.00;102395.97;5018562;28;20087;-81
2023/02/20 09:41:34;;;;;;;20.67;4.95;;;;;;;7.11;100.00;102399.59;5051467;28;20557;-82
2023/02/20 09:44:20;;;;;;;11.13;4.57;;;;;;;7.15;100.00;102394.06;5053605;28;20017;-82
2023/02/20 09:46:49;;;;;;;11.95;4.30;;;;;;;7.11;100.00;102389.00;5053530;28;20112;-83
2023/02/20 09:49:23;;;;;;;10.48;4.38;;;;;;;7.08;100.00;102387.34;5053172;28;20033;-82
2023/02/20 09:51:55;;;;;;;16.73;4.70;;;;;;;7.12;100.00;102403.91;5051539;28;20033;-79
2023/02/20 09:54:36;;;;;;;11.60;4.20;;;;;;;7.13;100.00;102392.41;5052048;28;20025;-77
2023/02/20 09:57:08;;;;;;;12.18;3.92;;;;;;;7.15;100.00;102396.69;5051727;28;20032;-80
2023/02/20 09:59:40;;;;;;;13.05;4.20;;;;;;;7.07;100.00;102390.94;5051700;28;20031;-78
2023/02/20 10:02:27;;;;;;;12.23;4.47;;;;;;;7.10;100.00;102389.91;5052133;28;20040;-84
2023/02/20 10:05:03;;;;;;;15.10;4.82;;;;;;;7.12;100.00;102401.28;5052333;28;20031;-79
2023/02/20 10:07:35;;;;;;;13.60;5.35;;;;;;;7.18;100.00;102393.00;5051599;28;20025;-83
2023/02/20 10:10:16;;;;;;;13.90;5.20;;;;;;;7.23;100.00;102393.66;5052005;28;20080;-84
2023/02/20 10:13:23;;;;;;;9.70;5.10;;;;;;;7.25;100.00;102394.41;5051211;28;20037;-84
2023/02/20 10:15:51;;;;;;;10.35;5.00;;;;;;;7.27;100.00;102374.03;5050798;28;20033;-79
2023/02/20 10:18:16;;;;;;;13.50;5.05;;;;;;;7.26;100.00;102376.75;5051677;28;20112;-80
2023/02/20 10:20:57;;;;;;;13.93;5.22;;;;;;;7.28;100.00;102382.81;5051408;28;20492;-77
2023/02/20 10:23:28;;;;;;;16.88;5.13;;;;;;;7.29;100.00;102380.09;5051817;28;20021;-79
2023/02/20 10:26:01;;;;;;;12.45;5.15;;;;;;;7.31;100.00;102386.16;5051850;28;20025;-82
2023/02/20 10:28:27;;;;;;;18.20;5.20;;;;;;;7.33;100.00;102373.72;5051510;28;20057;-81
2023/02/20 10:31:00;;;;;;;14.73;4.65;;;;;;;7.40;100.00;102374.22;5033381;28;20060;-80
2023/02/20 10:33:32;;;;;;;10.98;4.88;;;;;;;7.42;100.00;102361.78;5051598;28;20465;-81
2023/02/20 10:36:03;;;;;;;9.90;4.88;;;;;;;7.47;100.00;102375.63;5051908;28;20068;-80
2023/02/20 10:38:37;;;;;;;11.50;4.70;;;;;;;7.55;100.00;102385.78;5052145;28;20025;-80
2023/02/20 10:41:12;;;;;;;16.63;5.25;;;;;;;7.54;100.00;102400.00;5052012;28;20033;-81
2023/02/20 10:43:47;;;;;;;15.07;5.38;;;;;;;7.53;100.00;102399.13;5051130;28;20029;-81
2023/02/20 10:46:33;;;;;;;14.25;4.30;;;;;;;7.56;100.00;102380.41;5051494;28;20087;-81
2023/02/20 10:49:01;;;;;;;14.40;4.75;;;;;;;7.53;100.00;102369.16;5051789;28;20040;-80
2023/02/20 10:51:41;;;;;;;11.40;4.13;;;;;;;7.63;100.00;102364.19;5051960;28;20032;-82
2023/02/20 10:54:11;;;;;;;11.88;4.22;;;;;;;7.63;100.00;102378.31;5051792;28;20106;-82
2023/02/20 10:57:00;;;;;;;10.77;4.22;;;;;;;7.61;100.00;102384.63;5051430;28;20033;-81
2023/02/20 10:59:36;;;;;;;14.93;3.97;;;;;;;7.58;100.00;102372.38;5055524;28;20033;-81
2023/02/20 11:02:05;;;;;;;9.30;3.60;;;;;;;7.53;100.00;102385.03;5056240;28;20025;-79
2023/02/20 11:04:38;;;;;;;12.07;3.72;;;;;;;7.59;100.00;102366.16;5055711;28;20516;-81
2023/02/20 11:07:17;;;;;;;15.80;4.43;;;;;;;7.64;100.00;102366.75;5055790;28;20029;-80
2023/02/20 11:09:42;;;;;;;10.32;4.00;;;;;;;7.68;100.00;102367.47;5055894;28;20029;-82
2023/02/20 11:12:33;;;;;;;11.80;3.70;;;;;;;7.68;100.00;102356.88;5056004;28;20040;-81
2023/02/20 11:15:05;;;;;;;12.93;3.75;;;;;;;7.67;100.00;102360.44;5056080;28;20029;-80
2023/02/20 11:17:31;;;;;;;12.88;4.07;;;;;;;7.70;100.00;102339.97;5055909;28;20029;-82
2023/02/20 11:19:59;;;;;;;10.48;3.58;;;;;;;7.82;100.00;102338.41;5054812;28;20045;-82
2023/02/20 11:22:44;;;;;;;18.33;3.72;;;;;;;7.94;100.00;102348.34;5056710;28;20096;-79
2023/02/20 11:25:15;;;;;;;12.10;3.00;;;;;;;8.10;100.00;102352.78;5060430;28;20127;-82
2023/02/20 11:27:41;;;;;;;9.68;3.53;;;;;;;8.18;100.00;102321.41;5053182;28;20025;-83
2023/02/20 11:30:27;;;;;;;10.45;3.35;;;;;;;8.27;100.00;102314.69;5053313;28;20466;-83
2023/02/20 11:33:14;;;;;;;12.98;3.70;;;;;;;8.22;100.00;102322.06;5053669;28;20037;-82
2023/02/20 11:35:43;;;;;;;11.57;3.30;;;;;;;8.35;100.00;102324.88;5052189;28;20144;-82
2023/02/20 11:38:16;;;;;;;8.27;3.00;;;;;;;8.52;100.00;102338.03;5052788;28;20040;-82
2023/02/20 11:40:42;;;;;;;8.57;2.90;;;;;;;8.53;100.00;102354.84;5053508;28;20032;-83
2023/02/20 11:43:13;;;;;;;11.75;3.17;;;;;;;8.54;100.00;102354.75;5034438;28;20053;-83